createdAt,value
2023-01-13T00:01:08.222Z,0.50
2023-01-13T00:03:38.891Z,0.52
2023-01-13T00:06:08.330Z,0.40
2023-01-13T00:08:36.832Z,0.20
2023-01-13T00:11:05.210Z,0.20
2023-01-13T00:13:35.319Z,1.40
2023-01-13T00:16:06.074Z,0.30
2023-01-13T00:18:36.829Z,0.30
2023-01-13T00:21:08.626Z,0.30
2023-01-13T00:23:37.055Z,0.30
2023-01-13T00:26:07.933Z,0.30
2023-01-13T00:28:37.158Z,0.40
2023-01-13T00:31:07.044Z,0.43
2023-01-13T00:33:36.109Z,0.65
2023-01-13T00:36:08.004Z,0.70
2023-01-13T00:38:37.764Z,1.05
2023-01-13T00:41:08.096Z,1.23
2023-01-13T00:43:37.139Z,1.15
2023-01-13T00:46:06.882Z,0.50
2023-01-13T00:48:35.793Z,1.20
2023-01-13T00:51:08.588Z,2.08
2023-01-13T00:53:38.905Z,0.77
2023-01-13T00:56:09.929Z,0.52
2023-01-13T00:58:38.446Z,1.65
2023-01-13T01:01:08.998Z,1.67
2023-01-13T01:03:37.908Z,1.42
2023-01-13T01:06:09.241Z,2.33
2023-01-13T01:08:37.591Z,0.40
2023-01-13T01:11:08.805Z,1.80
2023-01-13T01:13:37.761Z,1.27
2023-01-13T01:16:07.973Z,0.70
2023-01-13T01:18:38.222Z,1.25
2023-01-13T01:21:08.930Z,0.45
2023-01-13T01:23:38.460Z,2.15
2023-01-13T01:26:09.607Z,1.80
2023-01-13T01:28:37.993Z,0.20
2023-01-13T01:31:10.655Z,1.65
2023-01-13T01:33:40.975Z,2.38
2023-01-13T01:36:12.238Z,0.55
2023-01-13T01:38:40.677Z,1.17
2023-01-13T01:41:09.179Z,1.25
2023-01-13T01:43:59.684Z,1.77
2023-01-13T01:46:29.287Z,1.52
2023-01-13T01:49:03.364Z,1.10
2023-01-13T01:51:37.915Z,1.15
2023-01-13T01:54:10.303Z,0.57
2023-01-13T01:56:42.516Z,2.10
2023-01-13T01:59:11.349Z,1.05
2023-01-13T02:01:41.501Z,1.42
2023-01-13T02:04:16.336Z,1.88
2023-01-13T02:06:48.111Z,1.13
2023-01-13T02:09:17.865Z,2.65
2023-01-13T02:12:03.736Z,1.75
2023-01-13T02:14:35.342Z,0.55
2023-01-13T02:17:24.158Z,1.55
2023-01-13T02:20:31.288Z,2.13
2023-01-13T02:26:14.166Z,3.97
2023-01-13T02:29:22.169Z,2.50
2023-01-13T02:31:56.540Z,2.88
2023-01-13T02:34:33.797Z,0.70
2023-01-13T02:37:08.261Z,3.60
2023-01-13T02:39:44.551Z,1.50
2023-01-13T02:42:37.615Z,1.60
2023-01-13T02:45:12.548Z,0.75
2023-01-13T02:47:45.997Z,2.00
2023-01-13T02:50:18.329Z,1.35
2023-01-13T02:52:51.712Z,2.35
2023-01-13T02:55:27.022Z,2.75
2023-01-13T02:57:59.349Z,0.65
2023-01-13T03:00:29.096Z,3.63
2023-01-13T03:02:59.225Z,1.63
2023-01-13T03:05:28.684Z,1.55
2023-01-13T03:08:08.807Z,1.33
2023-01-13T03:10:56.584Z,2.35
2023-01-13T03:14:09.706Z,4.18
2023-01-13T03:16:49.735Z,5.95
2023-01-13T03:19:31.374Z,3.15
2023-01-13T03:22:09.176Z,2.85
2023-01-13T03:24:41.256Z,5.35
2023-01-13T03:27:16.149Z,4.18
2023-01-13T03:29:50.764Z,5.03
2023-01-13T03:32:24.241Z,3.40
2023-01-13T03:34:57.973Z,5.38
2023-01-13T03:37:31.670Z,2.03
2023-01-13T03:40:03.083Z,4.68
2023-01-13T03:42:35.062Z,3.53
2023-01-13T03:45:07.831Z,8.60
2023-01-13T03:47:42.214Z,2.33
2023-01-13T03:50:16.260Z,5.40
2023-01-13T03:52:48.480Z,3.63
2023-01-13T03:55:19.327Z,3.03
2023-01-13T03:57:51.997Z,2.58
2023-01-13T04:00:23.891Z,5.43
2023-01-13T04:02:57.009Z,4.55
2023-01-13T04:05:28.340Z,6.35
2023-01-13T04:08:04.539Z,4.32
2023-01-13T04:10:39.558Z,3.83
2023-01-13T04:13:12.569Z,7.88
2023-01-13T04:15:44.098Z,2.72
2023-01-13T04:18:17.860Z,4.05
2023-01-13T04:20:49.980Z,3.00
2023-01-13T04:23:19.409Z,2.78
2023-01-13T04:25:48.612Z,3.50
2023-01-13T04:28:18.418Z,5.18
2023-01-13T04:30:47.855Z,2.50
2023-01-13T04:33:18.279Z,2.80
2023-01-13T04:35:49.105Z,4.72
2023-01-13T04:38:19.177Z,2.22
2023-01-13T04:40:48.322Z,2.17
2023-01-13T04:43:17.445Z,2.05
2023-01-13T04:45:46.014Z,4.03
2023-01-13T04:48:14.595Z,4.07
2023-01-13T04:50:43.112Z,5.07
2023-01-13T04:53:12.966Z,2.28
2023-01-13T04:55:41.622Z,0.70
2023-01-13T04:58:11.544Z,4.13
2023-01-13T05:00:40.408Z,3.42
2023-01-13T05:03:09.236Z,1.95
2023-01-13T05:05:38.013Z,2.15
2023-01-13T05:08:06.983Z,2.15
2023-01-13T05:10:37.014Z,4.15
2023-01-13T05:13:23.066Z,3.33
2023-01-13T05:18:46.252Z,2.75
2023-01-13T05:21:28.650Z,4.38
2023-01-13T05:24:14.621Z,7.40
2023-01-13T05:26:44.785Z,3.00
2023-01-13T05:29:13.254Z,3.63
2023-01-13T05:31:41.913Z,2.10
2023-01-13T05:34:10.633Z,4.15
2023-01-13T05:36:39.472Z,2.20
2023-01-13T05:39:08.026Z,2.25
2023-01-13T05:41:53.998Z,3.40
2023-01-13T05:44:24.905Z,2.67
2023-01-13T05:46:53.475Z,2.67
2023-01-13T05:49:22.035Z,1.75
2023-01-13T05:51:50.457Z,1.33
2023-01-13T05:54:18.828Z,2.25
2023-01-13T05:56:47.333Z,3.08
2023-01-13T05:59:15.756Z,4.15
2023-01-13T06:01:45.572Z,3.53
2023-01-13T06:04:14.319Z,5.32
2023-01-13T06:06:43.399Z,2.80
2023-01-13T06:09:11.827Z,3.65
2023-01-13T06:11:40.248Z,5.22
2023-01-13T06:14:08.667Z,3.97
2023-01-13T06:16:37.042Z,3.15
2023-01-13T06:19:08.942Z,4.20
2023-01-13T06:21:37.639Z,4.38
2023-01-13T06:24:07.079Z,1.73
2023-01-13T06:26:39.716Z,0.68
2023-01-13T06:29:10.074Z,3.60
2023-01-13T06:31:40.200Z,1.55
2023-01-13T06:34:15.116Z,0.65
2023-01-13T06:36:46.861Z,0.95
2023-01-13T06:39:18.858Z,2.60
2023-01-13T06:42:07.866Z,1.10
2023-01-13T06:44:36.252Z,2.08
2023-01-13T06:47:04.815Z,0.73
2023-01-13T06:49:34.653Z,1.02
2023-01-13T06:52:03.164Z,2.72
2023-01-13T06:54:31.519Z,5.10
2023-01-13T06:57:00.046Z,2.90
2023-01-13T06:59:29.184Z,2.75
2023-01-13T07:01:57.882Z,3.50
2023-01-13T07:04:26.792Z,4.38
2023-01-13T07:06:56.931Z,3.58
2023-01-13T07:09:25.364Z,4.43
2023-01-13T07:11:53.720Z,2.13
2023-01-13T07:14:39.750Z,2.83
2023-01-13T07:17:08.145Z,2.80
2023-01-13T07:19:36.536Z,1.63
2023-01-13T07:22:06.337Z,2.03
2023-01-13T07:24:34.667Z,2.95
2023-01-13T07:27:02.999Z,2.55
2023-01-13T07:29:31.466Z,5.45
2023-01-13T07:31:59.899Z,5.50
2023-01-13T07:34:28.208Z,1.98
2023-01-13T07:36:56.599Z,4.32
2023-01-13T07:39:26.359Z,4.82
2023-01-13T07:42:12.346Z,3.15
2023-01-13T07:44:41.268Z,7.88
2023-01-13T07:47:11.099Z,7.80
2023-01-13T07:49:39.509Z,5.25
2023-01-13T07:52:07.848Z,4.95
2023-01-13T07:54:41.070Z,7.05
2023-01-13T07:57:10.050Z,7.47
2023-01-13T07:59:38.535Z,7.32
2023-01-13T08:02:07.473Z,8.98
2023-01-13T08:04:36.125Z,6.97
2023-01-13T08:07:05.731Z,7.60
2023-01-13T08:09:34.066Z,5.85
2023-01-13T08:12:21.371Z,3.83
2023-01-13T08:14:51.651Z,6.88
2023-01-13T08:17:20.686Z,4.97
2023-01-13T08:19:49.176Z,9.57
2023-01-13T08:22:17.512Z,6.93
2023-01-13T08:24:45.891Z,7.03
2023-01-13T08:27:15.631Z,4.07
2023-01-13T08:29:44.026Z,5.85
2023-01-13T08:32:12.408Z,7.20
2023-01-13T08:34:40.931Z,4.35
2023-01-13T08:37:09.522Z,5.75
2023-01-13T08:39:37.915Z,6.45
2023-01-13T08:42:06.416Z,4.93
2023-01-13T08:44:36.459Z,6.70
2023-01-13T08:47:05.245Z,6.85
2023-01-13T08:49:33.636Z,5.57
2023-01-13T08:52:02.030Z,9.73
2023-01-13T08:54:30.590Z,11.27
2023-01-13T08:56:59.074Z,3.78
2023-01-13T08:59:27.432Z,8.85
2023-01-13T09:01:57.540Z,9.27
2023-01-13T09:04:28.610Z,4.47
2023-01-13T09:06:57.482Z,5.93
2023-01-13T09:09:27.615Z,10.48
2023-01-13T09:12:12.796Z,6.63
2023-01-13T09:14:41.309Z,8.23
2023-01-13T09:17:11.155Z,4.30
2023-01-13T09:19:39.641Z,10.77
2023-01-13T09:22:11.096Z,7.53
2023-01-13T09:24:39.501Z,4.45
2023-01-13T09:27:08.001Z,4.95
2023-01-13T09:29:36.353Z,9.07
2023-01-13T09:32:05.043Z,11.63
2023-01-13T09:34:52.421Z,8.70
2023-01-13T09:37:20.781Z,6.65
2023-01-13T09:39:49.241Z,4.97
2023-01-13T09:42:42.747Z,6.03
2023-01-13T09:45:16.791Z,4.15
2023-01-13T09:47:51.173Z,5.63
2023-01-13T09:50:30.633Z,5.65
2023-01-13T09:53:00.586Z,7.43
2023-01-13T09:55:34.642Z,4.53
2023-01-13T09:58:08.842Z,4.63
2023-01-13T10:00:44.389Z,7.07
2023-01-13T10:03:22.180Z,6.07
2023-01-13T10:05:58.455Z,4.20
2023-01-13T10:08:30.384Z,4.85
2023-01-13T10:11:21.353Z,7.30
2023-01-13T10:13:52.210Z,9.00
2023-01-13T10:16:29.219Z,6.65
2023-01-13T10:19:06.440Z,5.60
2023-01-13T10:22:19.618Z,9.65
2023-01-13T10:25:18.236Z,8.02
2023-01-13T10:27:49.944Z,6.28
2023-01-13T10:30:21.635Z,6.28
2023-01-13T10:32:55.121Z,5.32
2023-01-13T10:35:56.548Z,4.55
2023-01-13T10:38:29.539Z,4.75
2023-01-13T10:40:59.832Z,8.55
2023-01-13T10:43:29.707Z,5.13
2023-01-13T10:46:01.631Z,8.65
2023-01-13T10:48:35.217Z,10.40
2023-01-13T10:51:28.804Z,7.70
2023-01-13T10:54:03.615Z,9.48
2023-01-13T10:56:33.877Z,8.70
2023-01-13T10:59:18.461Z,5.07
2023-01-13T11:02:02.421Z,6.35
2023-01-13T11:04:35.928Z,8.93
2023-01-13T11:07:07.543Z,10.52
2023-01-13T11:09:37.228Z,6.30
2023-01-13T11:12:05.873Z,5.55
2023-01-13T11:14:39.706Z,3.17
2023-01-13T11:17:23.039Z,5.15
2023-01-13T11:19:56.621Z,6.47
2023-01-13T11:22:29.342Z,7.35
2023-01-13T11:25:02.550Z,5.53
2023-01-13T11:27:41.555Z,3.08
2023-01-13T11:30:22.953Z,7.07
2023-01-13T11:33:04.673Z,3.58
2023-01-13T11:35:36.935Z,3.60
2023-01-13T11:38:14.430Z,2.40
2023-01-13T11:40:49.637Z,3.22
2023-01-13T11:43:27.450Z,4.78
2023-01-13T11:45:58.584Z,2.35
2023-01-13T11:48:30.400Z,4.00
2023-01-13T11:51:04.373Z,10.07
2023-01-13T11:53:48.840Z,3.45
2023-01-13T11:56:33.791Z,4.97
2023-01-13T11:59:15.795Z,4.05
2023-01-13T12:01:56.584Z,6.93
2023-01-13T12:04:29.455Z,4.80
2023-01-13T12:07:12.729Z,5.95
2023-01-13T12:09:53.441Z,2.80
2023-01-13T12:12:34.674Z,7.55
2023-01-13T12:15:29.063Z,7.05
2023-01-13T12:18:12.257Z,5.95
2023-01-13T12:20:48.698Z,6.30
2023-01-13T12:23:27.922Z,7.53
2023-01-13T12:26:01.139Z,11.27
2023-01-13T12:28:44.576Z,5.65
2023-01-13T12:31:14.524Z,6.50
2023-01-13T12:33:56.880Z,6.75
2023-01-13T12:36:33.528Z,6.68
2023-01-13T12:39:10.803Z,4.85
2023-01-13T12:41:59.828Z,4.60
2023-01-13T12:44:29.636Z,7.60
2023-01-13T12:46:59.652Z,7.78
2023-01-13T12:49:31.017Z,6.38
2023-01-13T12:52:16.146Z,8.55
2023-01-13T12:55:10.856Z,5.55
2023-01-13T12:57:40.155Z,8.00
2023-01-13T13:00:17.555Z,4.50
2023-01-13T13:03:24.268Z,5.97
2023-01-13T13:05:59.310Z,11.02
2023-01-13T13:08:46.191Z,9.57
2023-01-13T13:11:52.676Z,6.13
2023-01-13T13:15:01.215Z,8.20
2023-01-13T13:17:44.345Z,6.85
2023-01-13T13:20:53.830Z,6.25
2023-01-13T13:23:36.072Z,9.23
2023-01-13T13:26:16.205Z,6.43
2023-01-13T13:28:54.751Z,9.73
2023-01-13T13:31:37.279Z,7.82
2023-01-13T13:34:21.734Z,6.22
2023-01-13T13:37:12.226Z,9.27
2023-01-13T13:40:00.791Z,8.52
2023-01-13T13:43:00.478Z,5.78
2023-01-13T13:45:46.635Z,5.95
2023-01-13T13:48:26.731Z,12.43
2023-01-13T13:51:01.762Z,8.82
2023-01-13T13:53:33.953Z,8.10
2023-01-13T13:56:04.840Z,5.85
2023-01-13T13:58:36.979Z,2.92
2023-01-13T14:01:06.340Z,8.68
2023-01-13T14:03:39.894Z,3.78
2023-01-13T14:06:23.575Z,4.60
2023-01-13T14:08:52.080Z,9.15
2023-01-13T14:11:27.961Z,7.13
2023-01-13T14:14:04.678Z,5.32
2023-01-13T14:16:35.018Z,5.78
2023-01-13T14:19:05.087Z,8.68
2023-01-13T14:21:34.827Z,5.53
2023-01-13T14:24:13.631Z,5.43
2023-01-13T14:26:42.449Z,9.23
2023-01-13T14:29:17.861Z,8.00
2023-01-13T14:31:46.433Z,7.95
2023-01-13T14:34:32.332Z,7.30
2023-01-13T14:37:03.781Z,6.40
2023-01-13T14:39:38.876Z,4.50
2023-01-13T14:42:14.102Z,2.63
2023-01-13T14:44:49.625Z,8.80
2023-01-13T14:47:27.642Z,8.82
2023-01-13T14:50:03.336Z,8.77
2023-01-13T14:52:36.574Z,9.95
2023-01-13T14:55:30.313Z,6.45
2023-01-13T14:58:28.330Z,9.35
2023-01-13T15:01:32.361Z,6.93
2023-01-13T15:04:17.295Z,6.90
2023-01-13T15:06:48.248Z,10.35
2023-01-13T15:09:29.793Z,11.18
2023-01-13T15:11:58.817Z,8.85
2023-01-13T15:14:35.969Z,7.70
2023-01-13T15:17:04.494Z,11.57
2023-01-13T15:19:36.426Z,6.32
2023-01-13T15:22:05.526Z,5.40
2023-01-13T15:24:35.273Z,10.10
2023-01-13T15:27:12.078Z,9.73
2023-01-13T15:29:51.666Z,10.13
2023-01-13T15:32:23.658Z,8.60
2023-01-13T15:34:53.016Z,6.85
2023-01-13T15:37:21.405Z,7.57
2023-01-13T15:39:51.232Z,7.10
2023-01-13T15:42:37.161Z,4.53
2023-01-13T15:45:24.032Z,6.05
2023-01-13T15:47:53.185Z,7.82
2023-01-13T15:50:23.028Z,9.23
2023-01-13T15:52:51.522Z,6.47
2023-01-13T15:55:21.219Z,7.10
2023-01-13T15:57:51.169Z,7.05
2023-01-13T16:00:22.203Z,5.97
2023-01-13T16:02:50.878Z,9.00
2023-01-13T16:05:19.308Z,7.65
2023-01-13T16:07:49.453Z,5.68
2023-01-13T16:10:20.136Z,9.10
2023-01-13T16:12:50.010Z,7.07
2023-01-13T16:15:22.212Z,14.68
2023-01-13T16:17:57.181Z,11.98
2023-01-13T16:20:25.844Z,8.75
2023-01-13T16:22:54.246Z,4.88
2023-01-13T16:25:24.547Z,9.13
2023-01-13T16:27:55.336Z,5.97
2023-01-13T16:30:27.272Z,3.53
2023-01-13T16:32:56.007Z,8.73
2023-01-13T16:35:25.327Z,10.63
2023-01-13T16:37:53.904Z,9.63
2023-01-13T16:40:31.117Z,7.88
2023-01-13T16:43:03.391Z,7.95
2023-01-13T16:45:32.976Z,8.90
2023-01-13T16:48:01.404Z,7.63
2023-01-13T16:50:35.949Z,8.35
2023-01-13T16:53:05.223Z,7.38
2023-01-13T16:55:33.931Z,11.02
2023-01-13T16:58:04.315Z,11.40
2023-01-13T17:00:34.425Z,5.53
2023-01-13T17:03:03.330Z,8.43
2023-01-13T17:05:31.736Z,6.55
2023-01-13T17:08:00.271Z,11.23
2023-01-13T17:10:28.810Z,6.85
2023-01-13T17:13:00.068Z,9.88
2023-01-13T17:15:34.083Z,15.52
2023-01-13T17:18:03.150Z,6.05
2023-01-13T17:20:31.694Z,7.45
2023-01-13T17:23:00.342Z,7.50
2023-01-13T17:25:28.725Z,10.43
2023-01-13T17:27:57.737Z,8.65
2023-01-13T17:30:26.244Z,5.38
2023-01-13T17:32:56.314Z,10.48
2023-01-13T17:35:25.417Z,11.10
2023-01-13T17:37:55.179Z,8.32
2023-01-13T17:40:24.128Z,7.95
2023-01-13T17:42:52.773Z,5.85
2023-01-13T17:45:21.185Z,13.75
2023-01-13T17:47:49.670Z,6.57
2023-01-13T17:50:19.656Z,8.73
2023-01-13T17:52:48.047Z,9.57
2023-01-13T17:55:16.768Z,8.48
2023-01-13T17:57:45.145Z,7.68
2023-01-13T18:00:14.423Z,7.40
2023-01-13T18:02:42.970Z,8.07
2023-01-13T18:05:12.489Z,8.73
2023-01-13T18:07:42.268Z,6.80
2023-01-13T18:10:12.284Z,8.23
2023-01-13T18:12:41.165Z,6.68
2023-01-13T18:15:10.197Z,9.77
2023-01-13T18:17:38.592Z,7.50
2023-01-13T18:20:24.829Z,8.10
2023-01-13T18:23:12.359Z,8.60
2023-01-13T18:25:58.841Z,10.65
2023-01-13T18:28:27.302Z,9.63
2023-01-13T18:30:55.639Z,7.90
2023-01-13T18:33:24.534Z,11.05
2023-01-13T18:35:52.953Z,10.13
2023-01-13T18:38:22.983Z,7.25
2023-01-13T18:40:51.959Z,6.15
2023-01-13T18:43:19.438Z,5.70
2023-01-13T18:45:51.590Z,10.10
2023-01-13T18:48:19.990Z,6.05
2023-01-13T18:50:48.383Z,4.15
2023-01-13T18:53:16.780Z,5.53
2023-01-13T18:55:46.477Z,10.25
2023-01-13T18:58:14.961Z,8.45
2023-01-13T19:00:43.415Z,12.95
2023-01-13T19:03:12.759Z,9.25
2023-01-13T19:05:41.266Z,4.65
2023-01-13T19:08:09.863Z,6.18
2023-01-13T19:10:40.383Z,7.65
2023-01-13T19:13:10.102Z,5.47
2023-01-13T19:15:38.478Z,9.32
2023-01-13T19:18:06.885Z,9.15
2023-01-13T19:20:35.264Z,7.60
2023-01-13T19:23:03.648Z,8.07
2023-01-13T19:25:32.100Z,11.10
2023-01-13T19:28:00.546Z,6.60
2023-01-13T19:30:30.394Z,8.55
2023-01-13T19:32:58.875Z,8.07
2023-01-13T19:35:27.263Z,9.32
2023-01-13T19:37:56.257Z,9.40
2023-01-13T19:40:24.684Z,13.23
2023-01-13T19:43:10.781Z,13.48
2023-01-13T19:48:08.905Z,6.80
2023-01-13T19:50:39.546Z,14.32
2023-01-13T19:53:08.902Z,14.73
2023-01-13T19:55:37.343Z,10.88
2023-01-13T19:58:08.006Z,8.80
2023-01-13T20:00:36.555Z,4.95
2023-01-13T20:03:10.601Z,9.50
2023-01-13T20:05:39.007Z,9.73
2023-01-13T20:08:07.493Z,13.68
2023-01-13T20:10:36.816Z,16.35
2023-01-13T20:13:06.538Z,9.30
2023-01-13T20:15:35.095Z,11.25
2023-01-13T20:18:03.512Z,11.45
2023-01-13T20:20:33.398Z,10.75
2023-01-13T20:23:01.997Z,11.10
2023-01-13T20:25:30.533Z,10.18
2023-01-13T20:28:01.652Z,11.52
2023-01-13T20:30:30.044Z,8.32
2023-01-13T20:32:58.440Z,16.20
2023-01-13T20:35:29.559Z,13.10
2023-01-13T20:37:59.656Z,10.80
2023-01-13T20:40:28.063Z,10.05
2023-01-13T20:42:56.463Z,9.68
2023-01-13T20:45:25.985Z,15.20
2023-01-13T20:47:55.205Z,12.60
2023-01-13T20:50:23.628Z,14.35
2023-01-13T20:52:52.547Z,14.02
2023-01-13T20:55:22.329Z,12.05
2023-01-13T20:57:50.795Z,11.32
2023-01-13T21:00:20.254Z,9.80
2023-01-13T21:02:48.580Z,13.45
2023-01-13T21:05:17.012Z,9.23
2023-01-13T21:07:45.485Z,12.23
2023-01-13T21:10:13.888Z,13.75
2023-01-13T21:13:00.924Z,14.05
2023-01-13T21:15:29.427Z,13.32
2023-01-13T21:18:15.510Z,11.65
2023-01-13T21:23:12.083Z,13.65
2023-01-13T21:25:41.065Z,12.60
2023-01-13T21:28:13.345Z,13.00
2023-01-13T21:30:41.674Z,14.27
2023-01-13T21:33:14.200Z,13.70
2023-01-13T21:35:42.629Z,15.07
2023-01-13T21:38:12.388Z,9.65
2023-01-13T21:40:40.824Z,11.82
2023-01-13T21:43:31.021Z,16.35
2023-01-13T21:46:31.336Z,8.90
2023-01-13T21:48:59.779Z,9.23
2023-01-13T21:51:28.467Z,13.18
2023-01-13T21:53:57.162Z,17.10
2023-01-13T21:56:25.660Z,17.75
2023-01-13T21:58:57.002Z,8.35
2023-01-13T22:01:26.235Z,12.88
2023-01-13T22:04:12.408Z,14.60
2023-01-13T22:09:09.322Z,8.48
2023-01-13T22:11:37.688Z,11.43
2023-01-13T22:14:08.769Z,9.05
2023-01-13T22:16:41.429Z,13.50
2023-01-13T22:19:10.982Z,10.25
2023-01-13T22:21:39.956Z,15.32
2023-01-13T22:24:08.768Z,12.38
2023-01-13T22:26:37.265Z,9.40
2023-01-13T22:29:07.006Z,7.32
2023-01-13T22:31:35.436Z,7.80
2023-01-13T22:34:03.862Z,9.25
2023-01-13T22:36:32.221Z,20.95
2023-01-13T22:39:01.279Z,11.63
2023-01-13T22:41:29.710Z,7.63
2023-01-13T22:43:58.151Z,12.38
2023-01-13T22:46:27.932Z,12.70
2023-01-13T22:48:56.290Z,11.52
2023-01-13T22:51:26.397Z,12.40
2023-01-13T22:53:55.106Z,14.57
2023-01-13T22:56:25.140Z,8.82
2023-01-13T22:58:57.962Z,11.18
2023-01-13T23:01:29.774Z,11.50
2023-01-13T23:03:58.707Z,8.43
2023-01-13T23:06:28.479Z,4.78
2023-01-13T23:08:57.403Z,13.07
2023-01-13T23:11:28.015Z,9.45
2023-01-13T23:14:00.951Z,8.15
2023-01-13T23:16:33.250Z,11.82
2023-01-13T23:19:02.230Z,14.45
2023-01-13T23:21:32.530Z,9.93
2023-01-13T23:24:01.198Z,7.60
2023-01-13T23:26:30.415Z,8.77
2023-01-13T23:29:00.190Z,9.88
2023-01-13T23:31:30.540Z,13.40
2023-01-13T23:33:59.231Z,10.70
2023-01-13T23:36:28.572Z,8.77
2023-01-13T23:38:59.265Z,11.73
2023-01-13T23:41:28.862Z,13.57
2023-01-13T23:43:59.601Z,6.57
2023-01-13T23:46:31.160Z,8.60
2023-01-13T23:48:59.639Z,11.27
2023-01-13T23:51:30.062Z,12.93
2023-01-13T23:53:59.692Z,7.93
2023-01-13T23:56:29.918Z,8.73
2023-01-13T23:58:58.698Z,14.25
